Time;durP1;ratioP1;P1;durP2;ratioP2;P2;SDS_P1;SDS_P2;PMS_P1;PMS_P2;Temp;Humidity;BMP_temperature;BMP_pressure;BME280_temperature;BME280_humidity;BME280_pressure;Samples;Min_cycle;Max_cycle;Signal;HPM_P1;HPM_P2
2022/08/18 00:02:43;;;;;;;12.20;7.13;;;21.70;99.90;;;;;;8425385;28;20044;-78
2022/08/18 00:06:46;;;;;;;9.07;6.03;;;21.60;99.90;;;;;;8424735;28;20052;-77
2022/08/18 00:10:48;;;;;;;7.35;5.70;;;21.70;99.90;;;;;;8423736;28;20044;-78
2022/08/18 00:14:51;;;;;;;9.75;5.97;;;21.80;99.90;;;;;;8416844;28;20118;-76
2022/08/18 00:18:53;;;;;;;7.88;5.97;;;21.70;99.90;;;;;;8417987;28;20047;-77
2022/08/18 00:22:56;;;;;;;8.18;6.20;;;21.70;99.90;;;;;;8423049;28;20036;-77
2022/08/18 00:26:58;;;;;;;10.88;6.57;;;21.70;99.90;;;;;;8420599;28;20489;-78
2022/08/18 00:31:01;;;;;;;8.20;6.32;;;21.60;99.90;;;;;;8418380;28;20036;-78
2022/08/18 00:35:12;;;;;;;7.25;6.15;;;21.60;99.90;;;;;;8411116;28;20043;-78
2022/08/18 00:39:15;;;;;;;8.73;6.20;;;21.70;99.90;;;;;;8405148;28;20048;-78
2022/08/18 00:43:23;;;;;;;9.25;5.97;;;21.70;99.90;;;;;;8406749;28;20044;-78
2022/08/18 00:47:27;;;;;;;8.15;5.95;;;21.70;99.90;;;;;;8418128;28;20052;-77
2022/08/18 00:51:35;;;;;;;8.23;7.03;;;21.60;99.90;;;;;;8424404;28;20047;-79
2022/08/18 00:55:43;;;;;;;8.52;6.93;;;21.50;99.90;;;;;;8417482;28;20504;-78
2022/08/18 00:59:49;;;;;;;7.97;6.30;;;21.40;99.90;;;;;;8419477;28;20051;-78
2022/08/18 01:03:59;;;;;;;7.68;6.45;;;21.50;99.90;;;;;;8418530;28;20066;-79
2022/08/18 01:08:03;;;;;;;9.93;7.00;;;21.60;99.90;;;;;;8421335;28;20048;-77
2022/08/18 01:12:08;;;;;;;8.20;6.43;;;21.60;99.90;;;;;;8414268;28;20771;-76
2022/08/18 01:29:26;;;;;;;8.73;7.07;;;21.50;99.90;;;;;;8410375;28;20490;-76
2022/08/18 01:33:31;;;;;;;10.57;7.10;;;21.40;99.90;;;;;;8413824;28;20045;-77
2022/08/18 01:37:34;;;;;;;7.70;6.88;;;21.30;99.90;;;;;;8410888;28;20544;-78
2022/08/18 01:41:38;;;;;;;9.38;6.75;;;21.20;99.90;;;;;;8422544;28;20040;-77
2022/08/18 01:45:41;;;;;;;9.77;6.60;;;21.10;99.90;;;;;;8407244;28;20504;-75
2022/08/18 01:49:44;;;;;;;9.88;6.75;;;21.10;99.90;;;;;;8422063;28;20047;-76
2022/08/18 01:53:47;;;;;;;8.52;6.57;;;21.10;99.90;;;;;;8422338;28;20040;-76
2022/08/18 01:57:50;;;;;;;8.48;6.70;;;21.20;99.90;;;;;;8422301;28;20040;-77
2022/08/18 02:01:54;;;;;;;8.40;6.97;;;21.20;99.90;;;;;;8419856;28;20044;-75
2022/08/18 02:06:02;;;;;;;7.57;6.78;;;20.90;99.90;;;;;;8415007;28;20056;-76
2022/08/18 02:10:06;;;;;;;7.93;6.80;;;20.80;99.90;;;;;;8414518;28;20040;-74
2022/08/18 02:14:09;;;;;;;10.70;7.38;;;20.80;99.90;;;;;;8415426;28;20139;-74
2022/08/18 02:18:15;;;;;;;8.73;7.30;;;20.70;99.90;;;;;;8420630;28;20514;-78
2022/08/18 02:22:20;;;;;;;9.60;7.10;;;20.60;99.90;;;;;;8409501;28;20088;-75
2022/08/18 02:26:23;;;;;;;7.82;6.45;;;20.60;99.90;;;;;;8418847;28;20078;-75
2022/08/18 02:30:26;;;;;;;8.60;6.43;;;20.60;99.90;;;;;;8411200;28;20064;-77
2022/08/18 02:34:28;;;;;;;8.48;6.78;;;20.70;99.90;;;;;;8420865;28;20055;-78
2022/08/18 02:38:31;;;;;;;9.48;6.97;;;20.60;99.90;;;;;;8414594;28;20505;-76
2022/08/18 02:42:33;;;;;;;8.82;7.43;;;20.60;99.90;;;;;;8420852;28;20409;-77
2022/08/18 02:46:37;;;;;;;12.13;8.23;;;20.60;99.90;;;;;;8407609;28;20055;-76
2022/08/18 02:50:45;;;;;;;10.35;8.13;;;20.40;99.90;;;;;;8420802;28;20051;-75
2022/08/18 02:54:47;;;;;;;10.93;8.00;;;20.30;99.90;;;;;;8418953;28;20082;-77
2022/08/18 02:58:53;;;;;;;10.90;8.05;;;20.30;99.90;;;;;;8420447;28;20387;-77
2022/08/18 03:02:56;;;;;;;10.52;8.82;;;20.40;99.90;;;;;;8416863;28;20051;-76
2022/08/18 03:07:03;;;;;;;10.63;8.20;;;20.40;99.90;;;;;;8427559;28;20044;-74
2022/08/18 03:11:05;;;;;;;10.13;8.40;;;20.40;99.90;;;;;;8427099;28;20059;-76
2022/08/18 03:15:08;;;;;;;9.68;8.45;;;20.30;99.90;;;;;;8422774;28;20049;-75
2022/08/18 03:19:15;;;;;;;11.23;8.90;;;20.30;99.90;;;;;;8426788;28;20052;-78
2022/08/18 03:23:17;;;;;;;9.98;7.90;;;20.30;99.90;;;;;;8407385;28;20434;-76
2022/08/18 03:27:19;;;;;;;9.32;7.53;;;20.30;99.90;;;;;;8406776;28;20112;-75
2022/08/18 03:31:24;;;;;;;8.50;7.15;;;20.30;99.90;;;;;;8421057;28;21719;-76
2022/08/18 03:35:28;;;;;;;9.88;6.88;;;20.40;99.90;;;;;;8413420;28;20044;-76
2022/08/18 03:39:30;;;;;;;10.02;7.05;;;20.40;99.90;;;;;;8404118;28;20098;-75
2022/08/18 03:43:32;;;;;;;8.50;6.75;;;20.30;99.90;;;;;;8418998;28;20051;-74
2022/08/18 03:47:34;;;;;;;8.75;7.10;;;20.30;99.90;;;;;;8420518;28;20120;-75
2022/08/18 03:51:38;;;;;;;10.32;7.20;;;20.20;99.90;;;;;;8426273;28;20422;-76
2022/08/18 03:55:41;;;;;;;8.20;6.82;;;20.10;99.90;;;;;;8412704;28;20131;-75
2022/08/18 03:59:43;;;;;;;8.00;6.63;;;20.10;99.90;;;;;;8412127;28;20047;-74
2022/08/18 04:03:50;;;;;;;7.93;6.63;;;20.10;99.90;;;;;;8425932;28;20055;-78
2022/08/18 04:07:53;;;;;;;8.65;6.88;;;20.10;99.90;;;;;;8422234;28;20055;-76
2022/08/18 04:11:57;;;;;;;9.75;6.97;;;20.10;99.90;;;;;;8419716;28;20051;-74
2022/08/18 04:16:00;;;;;;;10.00;7.60;;;20.10;99.90;;;;;;8418754;28;20508;-74
2022/08/18 04:20:02;;;;;;;7.93;6.53;;;20.10;99.90;;;;;;8434187;28;20044;-75
2022/08/18 04:24:07;;;;;;;12.27;7.05;;;20.10;99.90;;;;;;8414461;28;20444;-75
2022/08/18 04:28:09;;;;;;;9.18;6.88;;;20.20;99.90;;;;;;8401499;28;20045;-75
2022/08/18 04:32:11;;;;;;;9.88;6.90;;;20.20;99.90;;;;;;8401378;28;20040;-76
2022/08/18 04:36:15;;;;;;;11.13;6.93;;;20.00;99.90;;;;;;8401450;28;20406;-78
2022/08/18 04:40:19;;;;;;;8.77;6.65;;;19.90;99.90;;;;;;8405299;28;20429;-77
2022/08/18 04:44:21;;;;;;;7.50;6.30;;;19.80;99.90;;;;;;8414548;28;20045;-75
2022/08/18 04:48:23;;;;;;;8.25;6.85;;;19.90;99.90;;;;;;8402576;28;20053;-77
2022/08/18 04:56:46;;;;;;;9.03;6.60;;;19.70;99.90;;;;;;8415337;28;20055;-76
2022/08/18 05:00:59;;;;;;;8.65;6.70;;;19.70;99.90;;;;;;8394341;28;20045;-78
2022/08/18 05:05:02;;;;;;;9.23;6.35;;;19.70;99.90;;;;;;8390796;28;20063;-76
2022/08/18 05:09:07;;;;;;;7.53;5.90;;;19.70;99.90;;;;;;8433963;28;20048;-75
2022/08/18 05:13:15;;;;;;;7.30;6.05;;;19.70;99.90;;;;;;8433726;28;20044;-78
2022/08/18 05:17:17;;;;;;;8.70;5.80;;;19.70;99.90;;;;;;8425591;28;20548;-75
2022/08/18 05:21:21;;;;;;;9.55;6.68;;;19.80;99.90;;;;;;8424712;28;20220;-78
2022/08/18 05:25:23;;;;;;;9.20;6.38;;;19.80;99.90;;;;;;8432485;28;20048;-79
2022/08/18 05:29:26;;;;;;;8.38;6.53;;;19.80;99.90;;;;;;8433146;28;20477;-77
2022/08/18 05:33:28;;;;;;;8.40;6.57;;;19.90;99.90;;;;;;8430861;28;20060;-77
2022/08/18 05:37:36;;;;;;;9.00;6.78;;;20.00;99.90;;;;;;8412584;28;20051;-78
2022/08/18 05:41:43;;;;;;;7.28;6.43;;;20.00;99.90;;;;;;8399737;28;20051;-76
2022/08/18 05:45:53;;;;;;;8.77;6.72;;;20.10;99.90;;;;;;8409152;28;20040;-76
2022/08/18 05:49:57;;;;;;;9.30;6.73;;;20.10;99.90;;;;;;8432860;28;20044;-77
2022/08/18 05:58:28;;;;;;;8.27;6.60;;;20.20;99.90;;;;;;8431351;28;20092;-77
2022/08/18 06:02:37;;;;;;;8.15;6.35;;;20.30;99.90;;;;;;8432255;28;20056;-78
2022/08/18 06:06:39;;;;;;;8.05;6.25;;;20.30;99.90;;;;;;8432127;28;20051;-77
2022/08/18 06:10:46;;;;;;;8.20;6.25;;;20.40;99.90;;;;;;8430304;28;20163;-76
2022/08/18 06:14:49;;;;;;;7.22;5.72;;;20.40;99.90;;;;;;8429795;28;20670;-75
2022/08/18 06:19:01;;;;;;;8.90;5.97;;;20.50;99.90;;;;;;8398997;28;20040;-78
2022/08/18 06:23:20;;;;;;;8.50;6.05;;;20.60;99.90;;;;;;8401734;28;20044;-79
2022/08/18 06:27:31;;;;;;;7.70;5.88;;;20.70;99.90;;;;;;8403550;28;20056;-79
2022/08/18 06:31:42;;;;;;;8.10;6.40;;;20.80;99.90;;;;;;8409163;28;20074;-79
2022/08/18 06:35:49;;;;;;;9.77;5.70;;;20.90;99.90;;;;;;8401986;28;20051;-78
2022/08/18 06:39:52;;;;;;;7.97;6.00;;;21.00;99.90;;;;;;8404144;28;20052;-77
2022/08/18 06:44:00;;;;;;;7.95;6.15;;;21.10;99.90;;;;;;8397671;28;20045;-80
2022/08/18 06:48:12;;;;;;;8.13;6.15;;;21.20;99.90;;;;;;8397208;28;20053;-77
2022/08/18 06:52:27;;;;;;;7.10;6.22;;;21.30;99.90;;;;;;8401208;28;20048;-78
2022/08/18 06:56:45;;;;;;;7.93;6.38;;;21.40;99.90;;;;;;8397610;28;20053;-80
2022/08/18 07:00:58;;;;;;;10.18;6.50;;;21.50;99.90;;;;;;8394503;28;20136;-78
2022/08/18 07:05:04;;;;;;;9.52;7.35;;;21.60;99.90;;;;;;8363830;28;20056;-79
2022/08/18 07:09:26;;;;;;;8.52;7.00;;;21.70;99.90;;;;;;8384578;28;20048;-77
2022/08/18 07:13:30;;;;;;;8.63;7.15;;;21.80;99.90;;;;;;8397201;28;20048;-80
2022/08/18 07:17:36;;;;;;;8.85;7.13;;;21.80;99.90;;;;;;8369688;28;20099;-74
2022/08/18 07:21:41;;;;;;;8.75;7.10;;;21.70;99.90;;;;;;8360744;28;20089;-74
2022/08/18 07:25:47;;;;;;;8.60;6.70;;;21.70;99.90;;;;;;8424750;28;20059;-76
2022/08/18 07:30:08;;;;;;;8.00;7.05;;;21.40;99.90;;;;;;8426140;28;20488;-74
2022/08/18 07:34:16;;;;;;;9.88;7.90;;;21.20;99.90;;;;;;8424326;28;20445;-75
2022/08/18 07:38:26;;;;;;;8.65;7.40;;;20.90;99.90;;;;;;8424729;28;20044;-75
2022/08/18 07:42:48;;;;;;;8.55;6.95;;;20.90;99.90;;;;;;8423674;28;20059;-75
2022/08/18 07:46:59;;;;;;;10.18;7.22;;;20.90;99.90;;;;;;8363834;28;20049;-73
2022/08/18 07:51:13;;;;;;;9.77;7.60;;;20.90;99.90;;;;;;8364328;28;20513;-74
2022/08/18 07:55:28;;;;;;;9.50;6.95;;;21.00;99.90;;;;;;8394239;28;20490;-74
2022/08/18 07:59:38;;;;;;;10.68;7.32;;;21.10;99.90;;;;;;8397969;28;20052;-74
2022/08/18 08:03:52;;;;;;;8.48;6.82;;;21.20;99.90;;;;;;8412583;28;20053;-76
2022/08/18 08:08:00;;;;;;;8.02;7.22;;;21.20;99.90;;;;;;8403106;28;20128;-76
2022/08/18 08:12:11;;;;;;;8.40;6.95;;;21.10;99.90;;;;;;8397845;28;20052;-76
2022/08/18 08:16:27;;;;;;;9.38;6.78;;;21.10;99.90;;;;;;8412195;28;20056;-76
2022/08/18 08:20:37;;;;;;;9.52;6.55;;;21.00;99.90;;;;;;8430139;28;20500;-76
2022/08/18 08:25:03;;;;;;;8.20;6.78;;;21.10;99.90;;;;;;8430330;28;20052;-74
2022/08/18 08:29:20;;;;;;;12.15;7.72;;;21.20;99.90;;;;;;8430800;28;20052;-76
2022/08/18 08:33:32;;;;;;;9.63;7.55;;;21.30;99.90;;;;;;8429304;28;20055;-76
2022/08/18 08:37:43;;;;;;;11.60;7.30;;;21.30;99.90;;;;;;8411078;28;20056;-76
2022/08/18 08:41:53;;;;;;;10.05;7.80;;;21.40;99.90;;;;;;8397423;28;20483;-75
2022/08/18 08:46:07;;;;;;;9.40;7.13;;;21.40;99.90;;;;;;8414376;28;20365;-77
2022/08/18 08:50:14;;;;;;;9.40;7.93;;;21.40;99.90;;;;;;8441366;28;20139;-75
2022/08/18 08:54:22;;;;;;;9.05;7.25;;;21.40;99.90;;;;;;8430089;28;20048;-76
2022/08/18 08:58:30;;;;;;;8.45;6.80;;;21.50;99.90;;;;;;8429798;28;20048;-77
2022/08/18 09:02:54;;;;;;;8.93;6.60;;;21.70;99.90;;;;;;8444877;28;20056;-78
2022/08/18 09:07:17;;;;;;;7.80;6.00;;;21.70;99.90;;;;;;8463137;28;20063;-78
2022/08/18 09:12:02;;;;;;;8.30;6.18;;;21.90;99.90;;;;;;8431294;28;20048;-78
2022/08/18 09:16:22;;;;;;;6.65;5.63;;;22.00;99.90;;;;;;8421181;28;20052;-78
2022/08/18 09:21:02;;;;;;;7.95;6.40;;;22.10;99.90;;;;;;8431451;28;20055;-74
2022/08/18 09:25:28;;;;;;;8.35;6.47;;;22.10;99.90;;;;;;8430823;28;20044;-77
2022/08/18 09:29:49;;;;;;;7.82;5.93;;;22.20;99.90;;;;;;8426674;28;20059;-79
2022/08/18 09:34:27;;;;;;;8.00;6.30;;;22.40;99.90;;;;;;8414430;28;20494;-77
2022/08/18 09:43:05;;;;;;;7.80;6.25;;;22.60;99.90;;;;;;8392817;28;20409;-78
2022/08/18 09:47:09;;;;;;;8.50;6.78;;;22.70;99.90;;;;;;8399639;28;20048;-77
2022/08/18 09:51:34;;;;;;;8.57;6.38;;;22.80;99.70;;;;;;8428975;28;20502;-79
2022/08/18 09:55:53;;;;;;;10.40;7.38;;;22.90;99.80;;;;;;8424797;28;20059;-78
2022/08/18 10:00:30;;;;;;;8.27;6.68;;;22.90;99.60;;;;;;8423927;28;20079;-77
2022/08/18 10:04:34;;;;;;;9.88;7.70;;;23.10;99.70;;;;;;8387623;28;20057;-75
2022/08/18 10:08:57;;;;;;;10.30;7.85;;;23.10;99.30;;;;;;8394145;28;20098;-77
2022/08/18 10:13:16;;;;;;;10.60;7.82;;;23.10;99.70;;;;;;8394245;28;20402;-77
2022/08/18 10:17:39;;;;;;;9.63;7.82;;;23.20;99.80;;;;;;8393536;28;20433;-76
2022/08/18 10:22:03;;;;;;;10.75;8.70;;;23.40;99.30;;;;;;8393651;28;20502;-76
2022/08/18 10:26:05;;;;;;;17.98;9.45;;;23.30;98.90;;;;;;8397131;28;20056;-76
2022/08/18 10:30:59;;;;;;;10.25;9.10;;;23.40;99.40;;;;;;8426436;28;20059;-78
2022/08/18 10:35:05;;;;;;;10.68;9.40;;;23.30;99.40;;;;;;8424309;28;20044;-75
2022/08/18 10:39:11;;;;;;;11.63;10.05;;;23.20;99.60;;;;;;8427468;28;20142;-76
2022/08/18 10:43:21;;;;;;;11.77;10.27;;;23.40;99.70;;;;;;8427071;28;20044;-75
2022/08/18 10:47:29;;;;;;;13.27;11.17;;;23.50;99.90;;;;;;8402712;28;20048;-76
2022/08/18 10:52:14;;;;;;;12.75;11.45;;;23.70;99.70;;;;;;8393035;28;20057;-77
2022/08/18 10:56:30;;;;;;;13.95;11.85;;;23.90;99.40;;;;;;8392566;28;20044;-76
2022/08/18 11:00:50;;;;;;;13.25;11.85;;;23.90;99.00;;;;;;8425640;28;20066;-78
2022/08/18 11:04:54;;;;;;;15.82;12.50;;;24.10;98.50;;;;;;8423763;28;20147;-78
2022/08/18 11:09:01;;;;;;;13.13;11.60;;;24.00;99.20;;;;;;8414647;28;20454;-79
2022/08/18 11:13:11;;;;;;;12.65;10.38;;;24.00;99.10;;;;;;8392766;28;20056;-76
2022/08/18 11:17:24;;;;;;;11.50;10.02;;;24.30;98.70;;;;;;8392460;28;20128;-76
2022/08/18 11:21:35;;;;;;;14.85;11.82;;;24.60;98.30;;;;;;8401497;28;20055;-78
2022/08/18 11:25:40;;;;;;;13.30;10.52;;;24.60;98.50;;;;;;8431449;28;20047;-77
2022/08/18 11:29:43;;;;;;;13.35;11.40;;;24.70;98.10;;;;;;8434686;28;20044;-79
2022/08/18 11:33:45;;;;;;;14.68;12.07;;;24.80;97.90;;;;;;8449102;28;20051;-78
2022/08/18 11:37:54;;;;;;;11.57;10.38;;;24.90;97.60;;;;;;8430430;28;20048;-78
2022/08/18 11:41:58;;;;;;;13.13;10.93;;;25.00;97.60;;;;;;8413671;28;20546;-75
2022/08/18 11:46:13;;;;;;;12.88;10.45;;;25.00;96.60;;;;;;8400201;28;20057;-78
2022/08/18 11:50:28;;;;;;;10.90;9.55;;;25.10;96.80;;;;;;8398569;28;20414;-78
2022/08/18 11:54:40;;;;;;;12.60;9.25;;;25.30;97.00;;;;;;8398158;28;20051;-77
2022/08/18 11:58:46;;;;;;;11.07;9.13;;;25.40;96.50;;;;;;8399344;28;20102;-78
2022/08/18 12:02:49;;;;;;;10.43;8.77;;;25.60;95.90;;;;;;8397846;28;20065;-76
2022/08/18 12:07:00;;;;;;;10.75;7.82;;;25.60;95.80;;;;;;8407756;28;20561;-77
2022/08/18 12:11:07;;;;;;;12.23;8.20;;;25.80;95.70;;;;;;8429771;28;20551;-77
2022/08/18 12:15:28;;;;;;;10.02;8.20;;;25.70;94.90;;;;;;8431016;28;20044;-78
2022/08/18 12:19:30;;;;;;;11.27;8.32;;;25.80;95.10;;;;;;8433202;28;20063;-76
2022/08/18 12:23:34;;;;;;;10.23;8.13;;;25.60;94.80;;;;;;8433207;28;20101;-76
2022/08/18 12:27:36;;;;;;;8.77;7.45;;;25.60;94.40;;;;;;8415016;28;20056;-78
2022/08/18 12:31:40;;;;;;;9.30;7.68;;;25.50;94.60;;;;;;8397245;28;20052;-78
2022/08/18 12:35:43;;;;;;;9.15;7.70;;;25.60;94.00;;;;;;8395580;28;20044;-77
2022/08/18 12:39:45;;;;;;;10.20;7.82;;;25.70;94.20;;;;;;8397079;28;20095;-78
2022/08/18 12:43:47;;;;;;;9.38;7.82;;;25.40;93.80;;;;;;8396717;28;20539;-79
2022/08/18 12:47:51;;;;;;;10.30;8.32;;;25.20;94.00;;;;;;8396451;28;20048;-78
2022/08/18 12:51:54;;;;;;;14.52;8.93;;;25.40;93.60;;;;;;8396385;28;20128;-78
2022/08/18 12:55:56;;;;;;;8.93;7.97;;;25.40;93.30;;;;;;8409959;28;20480;-76
2022/08/18 12:59:58;;;;;;;10.30;8.15;;;25.50;93.40;;;;;;8429904;28;20052;-77
2022/08/18 13:04:02;;;;;;;9.57;8.10;;;25.50;93.40;;;;;;8427732;28;20048;-76
2022/08/18 13:08:06;;;;;;;9.85;7.78;;;25.40;93.50;;;;;;8429755;28;20080;-76
2022/08/18 13:12:10;;;;;;;9.85;8.07;;;25.70;92.90;;;;;;8411251;28;20049;-78
2022/08/18 13:16:13;;;;;;;8.70;7.63;;;25.70;92.40;;;;;;8410253;28;20055;-78
2022/08/18 13:20:17;;;;;;;10.30;8.00;;;25.60;92.10;;;;;;8395985;28;20088;-78
2022/08/18 13:24:19;;;;;;;11.73;8.05;;;25.70;92.30;;;;;;8395572;28;20048;-77
2022/08/18 13:28:21;;;;;;;10.48;8.25;;;25.70;91.30;;;;;;8395886;28;20052;-79
2022/08/18 13:32:24;;;;;;;8.48;7.10;;;25.50;92.00;;;;;;8396460;28;20060;-76
2022/08/18 13:36:43;;;;;;;9.75;7.72;;;25.70;92.10;;;;;;8393850;28;20084;-78
2022/08/18 13:40:47;;;;;;;8.55;7.65;;;25.80;91.50;;;;;;8394846;28;20044;-78
2022/08/18 13:44:49;;;;;;;10.35;6.80;;;26.10;91.30;;;;;;8395050;28;20110;-77
2022/08/18 13:48:51;;;;;;;9.35;7.53;;;26.50;90.40;;;;;;8395468;28;20056;-76
2022/08/18 13:52:55;;;;;;;8.43;7.07;;;26.20;91.00;;;;;;8394349;28;20550;-78
2022/08/18 13:56:57;;;;;;;8.18;6.40;;;26.30;90.00;;;;;;8394557;28;20048;-77
2022/08/18 14:01:02;;;;;;;9.40;6.80;;;26.40;90.00;;;;;;8395298;28;20044;-77
2022/08/18 14:05:07;;;;;;;8.10;6.57;;;26.50;90.10;;;;;;8394043;28;20044;-76
2022/08/18 14:09:12;;;;;;;8.23;6.85;;;26.40;90.30;;;;;;8394400;28;20058;-75
2022/08/18 14:13:15;;;;;;;10.52;6.93;;;26.50;90.10;;;;;;8398614;28;20490;-77
2022/08/18 14:17:17;;;;;;;9.18;6.60;;;26.60;89.00;;;;;;8427463;28;20047;-77
2022/08/18 14:29:57;;;;;;;10.13;8.25;;;27.00;88.80;;;;;;8406715;28;20095;-77
2022/08/18 14:33:59;;;;;;;9.30;7.00;;;27.20;86.70;;;;;;8392350;28;20048;-77
2022/08/18 14:38:02;;;;;;;9.10;6.45;;;27.10;86.80;;;;;;8394422;28;20045;-75
2022/08/18 14:42:06;;;;;;;8.73;6.70;;;27.30;86.80;;;;;;8392909;28;20520;-77
2022/08/18 14:46:08;;;;;;;8.10;6.82;;;27.40;86.40;;;;;;8393215;28;20040;-76
2022/08/18 14:50:12;;;;;;;7.50;6.35;;;27.40;85.00;;;;;;8394572;28;20518;-76
2022/08/18 14:54:14;;;;;;;9.00;7.07;;;27.40;84.50;;;;;;8398268;28;20071;-77
2022/08/18 14:58:17;;;;;;;11.35;6.72;;;27.30;83.50;;;;;;8424480;28;20048;-76
2022/08/18 15:02:20;;;;;;;9.90;6.93;;;27.10;84.40;;;;;;8418559;28;20052;-75
2022/08/18 15:06:22;;;;;;;8.27;7.05;;;27.10;85.70;;;;;;8421869;28;20762;-76
2022/08/18 15:10:24;;;;;;;8.02;7.00;;;27.10;85.20;;;;;;8415096;28;20487;-76
2022/08/18 15:14:32;;;;;;;8.50;6.97;;;27.00;84.80;;;;;;8410240;28;20086;-74
2022/08/18 15:18:34;;;;;;;10.20;7.40;;;27.00;86.10;;;;;;8408664;28;20070;-75
2022/08/18 15:27:03;;;;;;;8.73;6.75;;;26.70;86.20;;;;;;8410400;28;20098;-75
2022/08/18 15:31:06;;;;;;;10.82;6.90;;;26.80;86.20;;;;;;8412874;28;20553;-78
2022/08/18 15:35:09;;;;;;;9.23;6.68;;;26.80;86.00;;;;;;8402784;28;20040;-78
2022/08/18 15:39:11;;;;;;;9.52;6.80;;;26.90;86.80;;;;;;8397001;28;20047;-78
2022/08/18 15:43:13;;;;;;;9.05;7.10;;;26.90;86.70;;;;;;8395201;28;20048;-78
2022/08/18 15:47:17;;;;;;;8.02;6.57;;;27.00;85.20;;;;;;8415513;28;20409;-78
2022/08/18 15:51:19;;;;;;;9.00;6.97;;;27.50;84.60;;;;;;8416105;28;20056;-77
2022/08/18 15:55:23;;;;;;;9.07;7.03;;;27.70;83.10;;;;;;8420135;28;20045;-76
2022/08/18 15:59:26;;;;;;;11.20;7.35;;;27.90;83.80;;;;;;8415009;28;20055;-77
2022/08/18 16:03:30;;;;;;;8.38;7.00;;;27.70;83.70;;;;;;8410845;28;20052;-76
2022/08/18 16:07:33;;;;;;;7.93;6.60;;;27.70;82.50;;;;;;8419180;28;20055;-76
2022/08/18 16:11:35;;;;;;;9.38;7.22;;;27.60;83.20;;;;;;8413439;28;20054;-75
2022/08/18 16:15:41;;;;;;;9.00;7.15;;;27.60;83.00;;;;;;8420809;28;20743;-76
2022/08/18 16:19:45;;;;;;;8.57;7.28;;;27.50;84.00;;;;;;8405625;28;20117;-77
2022/08/18 16:23:51;;;;;;;9.45;7.03;;;27.30;84.70;;;;;;8422130;28;20048;-78
2022/08/18 16:27:54;;;;;;;8.65;6.10;;;27.30;84.20;;;;;;8414130;28;20055;-78
2022/08/18 16:31:56;;;;;;;8.60;6.88;;;27.20;83.50;;;;;;8420494;28;20155;-78
2022/08/18 16:36:05;;;;;;;10.70;7.15;;;27.20;82.50;;;;;;8403353;28;20051;-77
2022/08/18 16:40:09;;;;;;;10.07;6.60;;;27.10;81.50;;;;;;8414604;28;20413;-78
2022/08/18 16:44:14;;;;;;;7.32;6.53;;;27.00;81.90;;;;;;8419942;28;20072;-76
2022/08/18 16:48:16;;;;;;;8.43;6.25;;;26.90;82.30;;;;;;8396130;28;20452;-77
2022/08/18 16:52:20;;;;;;;8.48;6.65;;;26.90;82.70;;;;;;8418976;28;20056;-77
2022/08/18 16:56:25;;;;;;;9.75;7.25;;;26.80;82.80;;;;;;8406543;28;20053;-78
2022/08/18 17:04:50;;;;;;;9.65;6.55;;;26.50;83.90;;;;;;8399449;28;20098;-77
2022/08/18 17:08:55;;;;;;;7.93;6.18;;;26.30;84.80;;;;;;8418822;28;20052;-75
2022/08/18 17:12:57;;;;;;;9.43;6.75;;;26.30;85.20;;;;;;8421104;28;20505;-78
2022/08/18 17:17:00;;;;;;;8.95;6.65;;;26.30;85.30;;;;;;8391923;28;20426;-78
2022/08/18 17:21:03;;;;;;;9.25;6.63;;;26.20;85.40;;;;;;8395215;28;20072;-77
2022/08/18 17:25:10;;;;;;;10.45;6.78;;;26.10;85.50;;;;;;8400260;28;20439;-77
2022/08/18 17:29:19;;;;;;;9.98;6.90;;;26.00;86.70;;;;;;8400744;28;20044;-79
2022/08/18 17:33:25;;;;;;;8.82;6.88;;;25.90;87.10;;;;;;8401275;28;20080;-78
2022/08/18 17:37:30;;;;;;;8.93;6.85;;;25.70;87.20;;;;;;8400938;28;20045;-77
2022/08/18 17:42:24;;;;;;;8.43;6.55;;;25.60;86.90;;;;;;8391870;28;20049;-78
2022/08/18 17:46:02;;;;;;;7.07;5.97;;;25.50;86.20;;;;;;8396066;28;20135;-77
2022/08/18 17:54:40;;;;;;;7.60;6.47;;;25.20;88.50;;;;;;8399827;28;20157;-77
2022/08/18 17:58:54;;;;;;;7.53;6.60;;;25.00;89.80;;;;;;8428012;28;20044;-76
2022/08/18 18:02:57;;;;;;;9.35;7.13;;;25.00;90.50;;;;;;8416092;28;20062;-77
2022/08/18 18:06:59;;;;;;;8.23;7.32;;;24.90;90.80;;;;;;8385065;28;20045;-77
2022/08/18 18:11:11;;;;;;;7.35;6.50;;;24.90;91.10;;;;;;8412820;28;20052;-77
2022/08/18 18:15:31;;;;;;;10.80;6.50;;;24.80;91.40;;;;;;8386696;28;20052;-77
2022/08/18 18:19:35;;;;;;;9.63;7.40;;;24.70;91.60;;;;;;8387401;28;20045;-75
2022/08/18 18:23:45;;;;;;;8.23;6.78;;;24.60;92.00;;;;;;8366917;28;20049;-77
2022/08/18 18:27:49;;;;;;;10.32;8.30;;;24.50;92.20;;;;;;8376063;28;20478;-78
2022/08/18 18:32:03;;;;;;;9.30;7.50;;;24.40;92.30;;;;;;8394645;28;20378;-77
2022/08/18 18:36:06;;;;;;;10.43;8.00;;;24.40;92.60;;;;;;8409591;28;20148;-77
2022/08/18 18:40:31;;;;;;;8.85;7.68;;;24.30;92.70;;;;;;8411835;28;20052;-78
2022/08/18 18:44:33;;;;;;;10.15;8.73;;;24.20;92.90;;;;;;8411758;28;20052;-76
2022/08/18 18:48:47;;;;;;;11.25;8.75;;;24.20;93.00;;;;;;8410153;28;20052;-76
2022/08/18 18:53:08;;;;;;;11.77;9.60;;;24.20;93.10;;;;;;8411799;28;20391;-77
2022/08/18 18:57:15;;;;;;;10.80;9.70;;;24.20;93.30;;;;;;8409650;28;20083;-77
2022/08/18 19:01:30;;;;;;;11.02;9.90;;;24.10;93.50;;;;;;8404311;28;20048;-77
2022/08/18 19:05:49;;;;;;;13.27;9.90;;;24.00;93.70;;;;;;8405560;28;20061;-77
2022/08/18 19:09:59;;;;;;;13.43;11.00;;;24.00;93.80;;;;;;8416197;28;20040;-78
2022/08/18 19:14:07;;;;;;;12.05;10.82;;;24.00;93.90;;;;;;8408886;28;20044;-77
2022/08/18 19:18:26;;;;;;;12.40;11.10;;;24.00;94.10;;;;;;8408820;28;20265;-78
2022/08/18 19:22:39;;;;;;;12.13;10.93;;;24.00;94.30;;;;;;8390681;28;20075;-77
2022/08/18 19:26:45;;;;;;;13.10;11.65;;;23.90;94.40;;;;;;8397942;28;20471;-75
2022/08/18 19:30:51;;;;;;;13.60;10.80;;;23.90;94.30;;;;;;8409021;28;20072;-76
2022/08/18 19:34:57;;;;;;;13.45;11.18;;;23.90;94.30;;;;;;8411019;28;20132;-75
2022/08/18 19:39:11;;;;;;;13.15;10.48;;;23.80;94.30;;;;;;8415170;28;20055;-73
2022/08/18 19:43:26;;;;;;;12.50;11.10;;;23.90;94.30;;;;;;8414154;28;20048;-74
2022/08/18 19:47:36;;;;;;;15.43;11.48;;;23.80;94.20;;;;;;8413547;28;20916;-75
2022/08/18 19:51:41;;;;;;;13.87;11.70;;;23.80;94.10;;;;;;8424249;28;20410;-75
2022/08/18 19:56:13;;;;;;;13.65;12.23;;;23.70;94.20;;;;;;8418353;28;20040;-76
2022/08/18 20:00:28;;;;;;;14.40;12.23;;;23.70;94.20;;;;;;8400982;28;20048;-76
2022/08/18 20:04:47;;;;;;;14.50;12.35;;;23.70;94.30;;;;;;8415688;28;20049;-75
2022/08/18 20:09:13;;;;;;;14.15;12.73;;;23.70;94.80;;;;;;8416362;28;20055;-77
2022/08/18 20:13:31;;;;;;;14.07;12.57;;;23.70;94.40;;;;;;8397946;28;20090;-76
2022/08/18 20:17:34;;;;;;;14.90;13.05;;;23.70;94.80;;;;;;8412231;28;20047;-74
2022/08/18 20:21:48;;;;;;;16.15;13.68;;;23.70;94.60;;;;;;8420713;28;20060;-75
2022/08/18 20:25:50;;;;;;;15.43;12.80;;;23.70;94.60;;;;;;8420042;28;20044;-76
2022/08/18 20:30:26;;;;;;;14.63;13.02;;;23.70;94.70;;;;;;8418535;28;20508;-76
2022/08/18 20:34:32;;;;;;;15.65;13.63;;;23.70;94.70;;;;;;8393820;28;20442;-76
2022/08/18 20:38:38;;;;;;;14.32;12.82;;;23.60;94.70;;;;;;8413700;28;20044;-76
2022/08/18 20:42:47;;;;;;;15.30;13.45;;;23.60;94.70;;;;;;8414176;28;20044;-78
2022/08/18 20:47:07;;;;;;;14.95;12.88;;;23.60;94.60;;;;;;8404258;28;20036;-76
2022/08/18 20:51:10;;;;;;;;;;;23.60;94.50;;;;;;8417843;28;20048;-77
2022/08/18 20:55:25;;;;;;;14.05;11.93;;;23.60;94.50;;;;;;8400636;28;19928;-75
2022/08/18 20:59:35;;;;;;;13.98;12.48;;;23.50;94.40;;;;;;8406902;28;20071;-75
2022/08/18 21:03:44;;;;;;;14.18;12.52;;;23.60;94.30;;;;;;8413821;28;20486;-78
2022/08/18 21:08:02;;;;;;;13.88;12.35;;;23.60;94.20;;;;;;8427170;28;20044;-76
2022/08/18 21:12:04;;;;;;;14.15;12.13;;;23.50;94.80;;;;;;8421874;28;20444;-75
2022/08/18 21:16:08;;;;;;;14.20;12.68;;;23.60;94.80;;;;;;8419853;28;20051;-75
2022/08/18 21:20:15;;;;;;;14.45;12.95;;;23.50;95.00;;;;;;8415358;28;20122;-77
2022/08/18 21:24:31;;;;;;;15.43;13.02;;;23.50;96.20;;;;;;8402826;28;20513;-76
2022/08/18 21:28:36;;;;;;;15.88;14.07;;;23.40;97.60;;;;;;8420213;28;20052;-76
2022/08/18 21:32:40;;;;;;;16.05;14.35;;;23.30;98.60;;;;;;8417619;28;20044;-77
2022/08/18 21:36:53;;;;;;;16.45;14.60;;;23.30;99.50;;;;;;8417050;28;20127;-76
2022/08/18 21:40:59;;;;;;;16.70;15.00;;;23.20;99.90;;;;;;8420957;28;20157;-78
2022/08/18 21:45:01;;;;;;;15.68;13.82;;;23.20;99.90;;;;;;8421058;28;20066;-79
2022/08/18 21:49:05;;;;;;;17.13;13.98;;;23.10;99.90;;;;;;8422929;28;20036;-76
2022/08/18 21:53:22;;;;;;;15.82;14.23;;;23.10;99.90;;;;;;8422513;28;20048;-78
2022/08/18 21:57:27;;;;;;;19.63;16.58;;;23.10;99.90;;;;;;8402515;28;20403;-78
2022/08/18 22:01:30;;;;;;;18.63;16.25;;;23.00;99.90;;;;;;8413073;28;20037;-76
2022/08/18 22:05:34;;;;;;;17.40;15.60;;;22.90;99.90;;;;;;8420782;28;20434;-78
2022/08/18 22:14:31;;;;;;;19.92;16.73;;;22.80;99.90;;;;;;8407411;28;20516;-77